首页
METAR-TAF:

METAR-TAF

机场 :

Luni

Sarzana, 意大利

纬度: 44-05N, 经度: 009-59E, 海拔: 9米

当前天气观测

该预报发布于5小时和56分钟前的11:55 UTC
风速5节,风向南转南东
温度 12°C
湿度 35%
气压 1014 hPa
能见度10公里或以上
1500米以下无云,无积雨云

METAR: LIQW 021155Z 16005KT CAVOK 12/M03 Q1014 RMK SKC VIS MIN 9999 WIND THR18 20006KT BLU

时间: 19:51 (17:51 UTC)

预报

该预报发布于6小时和51分钟前的11:00 UTC
预报有效从02日的 12点(UTC)到 02日的 21点(UTC)
风速5节,风向多变
能见度10公里或以上
1500米以下无云,无积雨云

TAF: LIQW 021100Z 0212/0221 VRB05KT CAVOK

超过4000个机场的气象观测和天气预报(METAR&TAF报告)。

可查询的气象台以黄色和红色小点在地图上表示。

将鼠标移到小点上方,可查看气象台名称。

然后点击查看天气观测和预报。

如需切换地图:点击带黑十字的绿色按钮放大地图;点击带横线的绿色按钮缩小地图;或者点击绿色箭头查看邻近地区的地图。


METAR-TAF: